Time;durP1;ratioP1;P1;durP2;ratioP2;P2;SDS_P1;SDS_P2;PMS_P1;PMS_P2;Temp;Humidity;BMP_temperature;BMP_pressure;BME280_temperature;BME280_humidity;BME280_pressure;Samples;Min_cycle;Max_cycle;Signal;HPM_P1;HPM_P2
2023/01/19 00:01:07;;;;;;;14.43;8.27;;;0.40;86.90;;;-0.79;75.21;99404.41;5029762;28;20209;-71
2023/01/19 00:03:35;;;;;;;12.07;7.90;;;0.40;87.30;;;-0.77;75.32;99403.34;5029444;28;20207;-71
2023/01/19 00:06:05;;;;;;;10.93;7.80;;;0.40;87.50;;;-0.76;76.49;99404.19;5029680;28;20219;-70
2023/01/19 00:08:34;;;;;;;12.87;8.70;;;0.40;87.50;;;-0.77;76.32;99398.06;5029480;28;20262;-71
2023/01/19 00:11:03;;;;;;;15.83;8.33;;;0.40;87.50;;;-0.75;75.88;99401.41;5029775;28;20194;-71
2023/01/19 00:13:33;;;;;;;10.60;8.10;;;0.40;87.60;;;-0.75;75.33;99400.56;5028901;28;20226;-70
2023/01/19 00:16:01;;;;;;;15.23;9.10;;;0.40;87.80;;;-0.75;75.28;99405.81;5029716;28;20210;-72
2023/01/19 00:18:29;;;;;;;9.50;7.40;;;0.40;87.80;;;-0.73;76.45;99403.94;5029220;28;20230;-70
2023/01/19 00:20:57;;;;;;;13.20;7.87;;;0.40;87.80;;;-0.70;75.70;99404.53;5029207;28;20577;-70
2023/01/19 00:23:25;;;;;;;10.83;8.27;;;0.50;87.90;;;-0.69;76.24;99390.44;5029721;28;20219;-69
2023/01/19 00:25:53;;;;;;;12.33;8.27;;;0.50;87.80;;;-0.66;76.85;99402.47;5028914;28;20581;-71
2023/01/19 00:28:22;;;;;;;10.67;7.70;;;0.50;87.80;;;-0.66;76.76;99405.94;5029703;28;20231;-70
2023/01/19 00:30:51;;;;;;;11.30;8.10;;;0.50;87.90;;;-0.69;75.63;99416.72;5029079;28;20211;-71
2023/01/19 00:33:19;;;;;;;12.87;8.50;;;0.50;88.10;;;-0.66;76.42;99405.94;5029486;28;20229;-71
2023/01/19 00:35:52;;;;;;;12.40;9.03;;;0.50;88.20;;;-0.68;75.89;99402.59;5028914;28;20217;-72
2023/01/19 00:38:21;;;;;;;13.20;8.13;;;0.50;88.30;;;-0.66;76.00;99400.69;5029289;28;20230;-73
2023/01/19 00:40:49;;;;;;;10.80;7.90;;;0.50;88.40;;;-0.59;76.02;99390.53;5027698;28;20238;-68
2023/01/19 00:43:16;;;;;;;10.37;7.80;;;0.50;88.30;;;-0.58;77.05;99395.66;5028871;28;20214;-69
2023/01/19 00:45:45;;;;;;;12.23;8.30;;;0.60;88.40;;;-0.55;77.00;99392.75;5029174;28;20219;-70
2023/01/19 00:48:15;;;;;;;10.20;8.23;;;0.60;88.40;;;-0.54;75.95;99394.44;5029120;28;20234;-72
2023/01/19 00:50:43;;;;;;;12.30;8.37;;;0.60;88.30;;;-0.49;76.89;99406.38;5031053;28;20203;-71
2023/01/19 00:53:11;;;;;;;12.43;7.87;;;0.60;88.40;;;-0.47;76.32;99396.56;5033388;28;20556;-70
2023/01/19 00:55:39;;;;;;;11.83;8.10;;;0.70;88.50;;;-0.47;75.95;99410.56;5032281;28;20214;-70
2023/01/19 00:58:07;;;;;;;10.77;8.13;;;0.70;88.50;;;-0.46;75.98;99411.41;5032345;28;20237;-69
2023/01/19 01:00:35;;;;;;;11.77;8.70;;;0.70;88.60;;;-0.43;77.22;99413.78;5032787;28;20203;-70
2023/01/19 01:03:03;;;;;;;9.77;7.70;;;0.70;88.50;;;-0.45;76.98;99418.34;5032992;28;20553;-71
2023/01/19 01:05:33;;;;;;;13.07;8.70;;;0.70;89.50;;;-0.43;77.24;99416.41;5032858;28;20202;-72
2023/01/19 01:08:01;;;;;;;13.10;8.70;;;0.70;88.60;;;-0.43;77.30;99419.88;5032931;28;20230;-70
2023/01/19 01:10:30;;;;;;;11.40;7.83;;;0.70;88.50;;;-0.38;75.67;99424.78;5033146;28;20214;-70
2023/01/19 01:12:58;;;;;;;9.43;7.20;;;0.80;88.40;;;-0.40;77.19;99421.41;5032577;28;20768;-71
2023/01/19 01:15:28;;;;;;;13.53;8.17;;;0.80;88.40;;;-0.37;77.16;99423.78;5032828;28;20215;-71
2023/01/19 01:17:56;;;;;;;12.93;8.37;;;0.80;88.30;;;-0.35;76.03;99422.72;5032757;28;20207;-70
2023/01/19 01:20:29;;;;;;;12.20;8.33;;;0.80;88.20;;;-0.36;76.72;99425.47;5032442;28;20672;-71
2023/01/19 01:22:58;;;;;;;13.63;8.03;;;0.80;88.30;;;-0.39;76.58;99417.84;5032805;28;20210;-71
2023/01/19 01:25:29;;;;;;;11.77;7.73;;;0.80;88.30;;;-0.40;76.28;99427.50;5032775;28;20297;-70
2023/01/19 01:27:58;;;;;;;10.57;7.80;;;0.70;88.30;;;-0.37;75.84;99415.91;5032736;28;20226;-71
2023/01/19 01:30:26;;;;;;;13.03;8.40;;;0.80;88.10;;;-0.37;76.50;99421.16;5032761;28;20210;-71
2023/01/19 01:32:54;;;;;;;11.70;7.30;;;0.80;88.10;;;-0.39;76.29;99433.63;5032244;28;20230;-69
2023/01/19 01:35:23;;;;;;;11.67;8.10;;;0.80;88.30;;;-0.43;76.76;99425.13;5032438;28;20207;-70
2023/01/19 01:37:51;;;;;;;13.10;8.07;;;0.70;88.40;;;-0.44;76.29;99441.03;5032250;28;20230;-71
2023/01/19 01:40:20;;;;;;;9.47;7.53;;;0.70;88.40;;;-0.44;76.82;99441.03;5032412;28;20230;-71
2023/01/19 01:42:49;;;;;;;11.90;7.73;;;0.70;88.50;;;-0.44;76.08;99435.75;5031943;28;20219;-71
2023/01/19 01:45:32;;;;;;;11.13;7.90;;;0.70;88.60;;;-0.46;77.15;99430.63;5031024;28;20213;-71
2023/01/19 01:48:08;;;;;;;11.37;8.37;;;0.70;88.50;;;-0.46;76.82;99435.06;5031230;28;20207;-73
2023/01/19 01:51:22;;;;;;;10.80;8.00;;;0.70;88.60;;;-0.50;76.22;99426.59;5031234;28;20210;-71
2023/01/19 01:53:34;;;;;;;11.03;7.30;;;0.70;88.80;;;-0.51;77.63;99431.00;5030838;28;20233;-71
2023/01/19 01:56:11;;;;;;;9.70;8.20;;;0.70;88.90;;;-0.53;76.51;99434.72;5030472;28;20202;-72
2023/01/19 01:58:41;;;;;;;15.47;8.83;;;0.60;88.80;;;-0.54;77.53;99433.88;5031092;28;20233;-71
2023/01/19 02:04:01;;;;;;;9.97;7.67;;;0.60;89.00;;;-0.55;77.76;99434.81;5031143;28;20558;-71
2023/01/19 02:06:29;;;;;;;9.90;7.57;;;0.60;89.00;;;-0.55;77.50;99424.31;5030911;28;20202;-71
2023/01/19 02:14:37;;;;;;;9.30;7.00;;;0.60;89.20;;;-0.58;76.30;99429.81;5030875;28;20241;-71
2023/01/19 02:17:06;;;;;;;10.33;6.83;;;0.60;89.00;;;-0.58;76.22;99421.94;5030361;28;20675;-73
2023/01/19 02:19:41;;;;;;;12.77;6.40;;;0.60;89.10;;;-0.60;76.87;99409.88;5030910;28;20258;-70
2023/01/19 02:22:17;;;;;;;10.77;7.10;;;0.60;89.70;;;-0.59;76.41;99416.81;5030839;28;20219;-71
2023/01/19 02:24:48;;;;;;;9.17;6.53;;;0.60;89.10;;;-0.61;76.61;99413.44;5030580;28;20251;-70
2023/01/19 02:27:17;;;;;;;10.80;7.20;;;0.50;89.00;;;-0.64;77.37;99419.78;5030516;28;20187;-70
2023/01/19 02:29:45;;;;;;;9.13;7.23;;;0.50;89.30;;;-0.65;77.63;99423.38;5030378;28;20231;-71
2023/01/19 02:32:13;;;;;;;10.37;7.07;;;0.50;89.20;;;-0.66;76.96;99421.72;5030413;28;20215;-73
2023/01/19 02:34:42;;;;;;;10.30;6.70;;;0.50;89.30;;;-0.67;76.52;99411.31;5030136;28;20231;-72
2023/01/19 02:37:14;;;;;;;14.63;7.33;;;0.50;89.40;;;-0.67;77.69;99414.78;5030264;28;20214;-72
2023/01/19 02:39:49;;;;;;;10.07;7.10;;;0.50;89.40;;;-0.68;77.57;99423.63;5030186;28;20288;-71
2023/01/19 02:42:24;;;;;;;10.57;6.80;;;0.50;89.30;;;-0.69;78.03;99421.97;4991895;28;1111939;-71
2023/01/19 02:44:56;;;;;;;8.87;6.80;;;0.40;89.40;;;-0.69;77.99;99421.97;5031236;28;20701;-71
2023/01/19 02:47:24;;;;;;;10.27;7.40;;;0.50;89.50;;;-0.71;77.05;99418.59;5030753;28;20214;-70
2023/01/19 02:49:57;;;;;;;11.13;7.30;;;0.50;89.60;;;-0.73;77.60;99407.41;5031222;28;20227;-71
2023/01/19 02:52:27;;;;;;;11.33;7.27;;;0.40;89.80;;;-0.74;78.15;99416.22;5031294;28;20203;-70
2023/01/19 02:55:10;;;;;;;8.70;7.43;;;0.40;89.80;;;-0.74;77.16;99413.59;5031555;28;20211;-70
2023/01/19 02:58:01;;;;;;;9.73;7.57;;;0.40;90.00;;;-0.75;77.83;99416.34;5030297;28;20218;-70
2023/01/19 03:00:40;;;;;;;9.40;7.37;;;0.40;90.10;;;-0.77;77.70;99418.25;5030508;28;20213;-71
2023/01/19 03:03:29;;;;;;;10.13;7.10;;;0.40;90.10;;;-0.79;77.78;99420.19;5029737;28;20731;-71
2023/01/19 03:06:08;;;;;;;10.87;7.63;;;0.30;90.20;;;-0.80;78.86;99416.72;5030750;28;20218;-70
2023/01/19 03:08:50;;;;;;;14.17;7.50;;;0.30;90.20;;;-0.80;78.56;99416.72;5030800;28;20226;-71
2023/01/19 03:11:20;;;;;;;9.10;7.07;;;0.30;90.20;;;-0.81;77.91;99422.91;5030978;28;20573;-70
2023/01/19 03:13:53;;;;;;;10.40;7.80;;;0.30;90.20;;;-0.85;78.85;99418.84;5029802;28;20231;-69
2023/01/19 03:16:27;;;;;;;9.60;7.33;;;0.30;90.40;;;-0.86;78.49;99419.84;5030664;28;20209;-70
2023/01/19 03:19:04;;;;;;;9.73;7.60;;;0.30;90.30;;;-0.84;77.90;99428.41;5023184;28;20309;-70
2023/01/19 03:21:36;;;;;;;13.57;8.03;;;0.30;90.40;;;-0.85;78.02;99426.75;5030577;28;20213;-69
2023/01/19 03:24:10;;;;;;;10.03;7.23;;;0.30;90.40;;;-0.81;78.09;99425.53;5030269;28;20870;-70
2023/01/19 03:26:46;;;;;;;9.70;7.50;;;0.30;90.40;;;-0.78;79.02;99433.19;5030243;28;20210;-70
2023/01/19 03:29:18;;;;;;;11.97;7.97;;;0.40;90.50;;;-0.74;79.04;99439.88;5030490;28;20505;-70
2023/01/19 03:31:50;;;;;;;12.90;8.27;;;0.40;90.40;;;-0.70;79.11;99440.47;5030192;28;20207;-71
2023/01/19 03:34:22;;;;;;;11.83;7.87;;;0.50;90.40;;;-0.62;79.13;99438.91;5030323;28;20702;-71
2023/01/19 03:36:57;;;;;;;9.33;7.67;;;0.50;90.40;;;-0.58;78.12;99435.06;5030035;28;20198;-71
2023/01/19 03:39:28;;;;;;;9.80;8.20;;;0.60;90.30;;;-0.54;77.83;99433.88;5029581;28;20226;-75
2023/01/19 03:42:04;;;;;;;9.63;7.40;;;0.60;90.30;;;-0.49;77.70;99430.06;5029487;28;20241;-71
2023/01/19 03:44:39;;;;;;;9.87;8.00;;;0.70;90.20;;;-0.44;78.03;99425.25;5030266;28;20198;-73
2023/01/19 03:47:11;;;;;;;11.30;7.57;;;0.70;90.10;;;-0.38;78.13;99425.63;5029936;28;20248;-70
2023/01/19 03:49:43;;;;;;;15.20;7.93;;;0.80;90.00;;;-0.35;77.63;99421.91;5029964;28;20235;-69
2023/01/19 03:52:12;;;;;;;13.23;8.10;;;0.80;89.80;;;-0.34;77.70;99415.69;5030005;28;20190;-70
2023/01/19 03:54:41;;;;;;;8.83;7.60;;;0.80;90.00;;;-0.36;77.73;99417.59;5030129;28;20276;-70
2023/01/19 03:57:10;;;;;;;12.03;7.50;;;0.80;90.00;;;-0.36;77.46;99417.59;5029173;28;20214;-69
2023/01/19 03:59:38;;;;;;;8.27;7.40;;;0.80;90.00;;;-0.32;78.54;99424.28;5029495;28;20621;-70
2023/01/19 04:02:06;;;;;;;10.27;7.43;;;0.80;90.10;;;-0.32;77.95;99424.28;5029684;28;20675;-69
2023/01/19 04:04:34;;;;;;;13.30;7.70;;;0.90;90.00;;;-0.33;78.68;99425.22;5030000;28;20207;-70
2023/01/19 04:07:02;;;;;;;11.83;8.10;;;0.80;90.10;;;-0.35;78.63;99422.72;5029311;28;20217;-70
2023/01/19 04:09:30;;;;;;;11.50;8.67;;;0.80;90.10;;;-0.33;78.03;99417.34;5029875;28;20633;-70
2023/01/19 04:12:00;;;;;;;14.53;8.37;;;0.90;90.70;;;-0.32;78.26;99419.84;5029820;28;20214;-69
2023/01/19 04:14:29;;;;;;;10.33;7.73;;;0.90;90.30;;;-0.30;78.62;99407.41;5030041;28;20237;-72
2023/01/19 04:16:57;;;;;;;9.93;8.00;;;0.90;90.30;;;-0.31;78.50;99410.19;5029398;28;20211;-71
2023/01/19 04:19:25;;;;;;;12.37;8.57;;;0.90;90.40;;;-0.32;78.27;99400.59;5029531;28;20598;-71
2023/01/19 04:21:54;;;;;;;11.07;8.30;;;0.90;90.40;;;-0.31;78.71;99397.84;5029495;28;20217;-70
2023/01/19 04:24:22;;;;;;;13.33;8.67;;;0.80;90.50;;;-0.34;78.96;99405.97;5029201;28;20226;-72
2023/01/19 04:26:52;;;;;;;16.90;12.63;;;0.80;90.60;;;-0.35;79.41;99403.50;5029306;28;20280;-72
2023/01/19 04:29:20;;;;;;;18.40;13.27;;;0.80;90.60;;;-0.36;78.78;99407.91;5029472;28;20234;-70
2023/01/19 04:31:50;;;;;;;15.40;11.00;;;0.80;90.60;;;-0.32;79.42;99408.50;5029504;28;20211;-70
2023/01/19 04:34:18;;;;;;;13.07;10.20;;;0.80;90.60;;;-0.33;79.48;99407.66;5029306;28;20229;-70
2023/01/19 04:36:49;;;;;;;13.03;9.10;;;0.80;90.60;;;-0.34;79.00;99410.44;5028979;28;20570;-72
2023/01/19 04:39:17;;;;;;;9.83;8.07;;;0.80;90.60;;;-0.25;79.56;99404.41;5029430;28;20231;-70
2023/01/19 04:41:45;;;;;;;9.60;7.77;;;0.90;90.50;;;-0.15;78.16;99400.06;5029222;28;20206;-70
2023/01/19 04:44:14;;;;;;;15.97;8.83;;;1.00;90.40;;;-0.05;77.81;99398.34;5029341;28;20218;-71
2023/01/19 04:46:42;;;;;;;12.53;8.27;;;1.10;90.10;;;-0.06;78.02;99399.31;5028955;28;20207;-70
2023/01/19 04:49:12;;;;;;;8.60;7.57;;;1.10;90.10;;;0.13;77.86;99399.47;5029454;28;20227;-70
2023/01/19 04:51:40;;;;;;;11.90;7.80;;;1.30;89.60;;;0.13;76.73;99396.84;5029130;28;20214;-70
2023/01/19 04:54:08;;;;;;;12.00;7.73;;;1.30;89.30;;;0.13;77.29;99386.31;5029373;28;20218;-70
2023/01/19 04:56:37;;;;;;;11.70;7.57;;;1.30;89.60;;;0.13;77.75;99388.97;5028906;28;20213;-69
2023/01/19 04:59:05;;;;;;;11.83;8.43;;;1.30;89.60;;;0.11;77.97;99392.66;5029109;28;20230;-69
2023/01/19 05:01:33;;;;;;;10.23;7.83;;;1.30;89.90;;;0.15;77.71;99400.19;5028820;28;20608;-70
2023/01/19 05:04:03;;;;;;;10.63;8.20;;;1.30;89.70;;;0.12;78.60;99405.69;5029325;28;20211;-70
2023/01/19 05:06:34;;;;;;;11.03;8.07;;;1.30;89.90;;;0.14;78.19;99401.13;5029105;28;20194;-71
2023/01/19 05:09:02;;;;;;;9.33;8.03;;;1.30;90.00;;;0.13;78.95;99391.59;5029061;28;20318;-72
2023/01/19 05:11:30;;;;;;;10.60;7.93;;;1.30;90.10;;;0.15;77.53;99402.81;5029239;28;20214;-71
2023/01/19 05:13:58;;;;;;;12.30;8.13;;;1.30;90.00;;;0.15;77.92;99402.81;5028596;28;20702;-71
2023/01/19 05:16:26;;;;;;;9.87;8.60;;;1.30;90.00;;;0.14;77.82;99408.22;5028798;28;20249;-71
2023/01/19 05:18:54;;;;;;;12.33;8.37;;;1.30;90.10;;;0.14;78.51;99408.22;5028971;28;20318;-71
2023/01/19 05:21:22;;;;;;;10.00;7.33;;;1.30;90.20;;;0.21;78.15;99410.19;5028703;28;20211;-72
2023/01/19 05:23:51;;;;;;;11.03;7.60;;;1.40;89.80;;;0.24;78.62;99409.94;5029009;28;20203;-73
2023/01/19 05:26:20;;;;;;;9.37;7.10;;;1.40;90.00;;;0.24;77.84;99407.28;5028606;28;20203;-70
2023/01/19 05:28:49;;;;;;;9.67;7.70;;;1.40;89.60;;;0.23;78.29;99405.66;5028919;28;20226;-70
2023/01/19 05:31:17;;;;;;;12.17;8.30;;;1.40;89.80;;;0.24;78.81;99403.84;5028798;28;20573;-71
2023/01/19 05:33:47;;;;;;;9.73;7.60;;;1.40;90.00;;;0.27;77.67;99407.06;5028701;28;20207;-71
2023/01/19 05:36:15;;;;;;;9.60;7.63;;;1.40;89.80;;;0.26;77.82;99400.13;5029305;28;20230;-71
2023/01/19 05:38:43;;;;;;;9.53;7.43;;;1.50;90.00;;;0.30;77.30;99406.81;5032142;28;20226;-71
2023/01/19 05:41:13;;;;;;;9.63;7.03;;;1.50;89.60;;;0.32;77.54;99406.66;5032166;28;20574;-72
2023/01/19 05:43:41;;;;;;;8.20;7.40;;;1.50;89.60;;;0.37;77.09;99407.13;5031882;28;20694;-71
2023/01/19 05:46:09;;;;;;;10.20;7.40;;;1.50;89.20;;;0.37;76.79;99405.34;5032355;28;20215;-71
2023/01/19 05:48:37;;;;;;;9.50;7.57;;;1.50;89.30;;;0.38;77.56;99414.03;5032166;28;20293;-70
2023/01/19 05:51:06;;;;;;;11.17;7.43;;;1.60;89.40;;;0.39;77.64;99408.66;5032002;28;20213;-70
2023/01/19 05:53:34;;;;;;;9.83;7.60;;;1.60;89.40;;;0.36;78.10;99406.28;5031897;28;20253;-69
2023/01/19 05:56:04;;;;;;;11.10;8.30;;;1.50;89.60;;;0.37;78.46;99412.41;5031592;28;20230;-70
2023/01/19 05:58:35;;;;;;;8.83;6.80;;;1.50;89.70;;;0.39;77.79;99416.56;5031825;28;20734;-69
2023/01/19 06:01:04;;;;;;;12.00;7.90;;;1.60;89.80;;;0.42;76.87;99416.31;5031932;28;20207;-69
2023/01/19 06:03:34;;;;;;;8.93;7.73;;;1.60;89.30;;;0.39;77.15;99418.34;5031676;28;20655;-70
2023/01/19 06:06:03;;;;;;;8.07;7.27;;;1.60;89.30;;;0.40;78.24;99417.41;5032064;28;20217;-70
2023/01/19 06:08:31;;;;;;;10.17;6.53;;;1.60;89.60;;;0.45;76.36;99421.31;5031725;28;20227;-70
2023/01/19 06:10:59;;;;;;;11.47;6.90;;;1.60;89.20;;;0.44;76.85;99419.66;5032151;28;20210;-70
2023/01/19 06:13:28;;;;;;;9.53;7.17;;;1.60;89.00;;;0.45;76.76;99425.72;5031684;28;20207;-70
2023/01/19 06:16:02;;;;;;;10.73;6.67;;;1.60;89.00;;;0.50;77.08;99426.19;5031370;28;20227;-71
2023/01/19 06:18:30;;;;;;;10.70;6.90;;;1.60;89.30;;;0.50;77.61;99421.78;5031998;28;20265;-70
2023/01/19 06:20:58;;;;;;;11.40;6.50;;;1.70;90.00;;;0.50;76.60;99429.66;5031510;28;20211;-70
2023/01/19 06:23:29;;;;;;;9.97;7.30;;;1.70;88.50;;;0.49;77.53;99429.78;5031661;28;20588;-70
2023/01/19 06:25:57;;;;;;;9.67;7.67;;;1.60;88.90;;;0.56;76.92;99422.19;5030891;28;20207;-71
2023/01/19 06:28:25;;;;;;;9.03;6.30;;;1.70;88.80;;;0.55;77.86;99433.72;5031473;28;20227;-70
2023/01/19 06:30:55;;;;;;;8.93;7.00;;;1.70;89.00;;;0.51;77.41;99435.78;5031417;28;20203;-70
2023/01/19 06:33:26;;;;;;;7.50;6.10;;;1.70;88.80;;;0.53;77.40;99433.84;5031545;28;20206;-70
2023/01/19 06:35:55;;;;;;;10.97;7.20;;;1.70;89.20;;;0.55;77.28;99437.16;5031070;28;20237;-70
2023/01/19 06:38:23;;;;;;;9.57;7.13;;;1.70;89.10;;;0.55;76.20;99442.44;5031318;28;20223;-71
2023/01/19 06:40:57;;;;;;;10.23;7.60;;;1.70;88.80;;;0.56;76.79;99438.00;5030139;28;20204;-72
2023/01/19 06:43:26;;;;;;;9.80;6.53;;;1.70;88.70;;;0.57;76.59;99445.78;5011489;28;20212;-70
2023/01/19 06:45:55;;;;;;;10.13;7.20;;;1.70;88.60;;;0.56;77.18;99445.91;5011215;28;20208;-70
2023/01/19 06:48:25;;;;;;;8.63;7.37;;;1.70;88.60;;;0.60;75.94;99444.69;5010066;28;20242;-71
2023/01/19 06:50:53;;;;;;;10.40;7.57;;;1.70;88.30;;;0.59;76.48;99445.66;5011261;28;20347;-70
2023/01/19 06:53:21;;;;;;;8.77;7.13;;;1.70;88.50;;;0.62;76.63;99453.31;5011142;28;20699;-69
2023/01/19 06:55:49;;;;;;;11.07;7.10;;;1.80;88.00;;;0.60;77.15;99444.69;5029876;28;20235;-70
2023/01/19 06:58:17;;;;;;;9.87;6.50;;;1.70;88.60;;;0.61;77.00;99464.81;5031065;28;20317;-70
2023/01/19 07:00:45;;;;;;;9.70;7.73;;;1.70;88.20;;;0.60;76.09;99456.06;5030823;28;20573;-71
2023/01/19 07:03:20;;;;;;;10.47;6.83;;;1.80;88.20;;;0.65;75.58;99463.59;5030981;28;20214;-70
2023/01/19 07:05:52;;;;;;;9.03;7.47;;;1.80;87.90;;;0.63;76.90;99465.50;5030356;28;20230;-70
2023/01/19 07:08:20;;;;;;;9.03;6.80;;;1.80;88.00;;;0.62;76.96;99469.13;5030805;28;20227;-70
2023/01/19 07:10:49;;;;;;;10.77;7.03;;;1.70;88.30;;;0.64;76.71;99465.38;5030784;28;20210;-72
2023/01/19 07:13:39;;;;;;;8.30;7.20;;;1.80;88.10;;;0.66;77.22;99467.88;5030625;28;20770;-70
2023/01/19 07:16:11;;;;;;;9.70;6.93;;;1.80;88.50;;;0.64;76.33;99468.00;5030023;28;20248;-71
2023/01/19 07:18:40;;;;;;;8.13;6.87;;;1.80;88.30;;;0.64;76.94;99472.44;5030077;28;20734;-72
2023/01/19 07:21:10;;;;;;;11.57;7.20;;;1.80;88.10;;;0.65;75.79;99474.94;5030320;28;20671;-71
2023/01/19 07:23:38;;;;;;;11.20;7.17;;;1.80;87.80;;;0.68;76.01;99465.97;5030443;28;20218;-70
2023/01/19 07:26:10;;;;;;;9.00;7.10;;;1.80;87.50;;;0.69;75.83;99464.97;5030099;28;20210;-70
2023/01/19 07:28:38;;;;;;;10.33;6.80;;;1.80;87.40;;;0.68;75.97;99468.59;5030063;28;20730;-74
2023/01/19 07:31:07;;;;;;;9.00;6.50;;;1.80;88.00;;;0.67;76.68;99477.44;5030471;28;20210;-68
2023/01/19 07:33:35;;;;;;;11.13;6.73;;;1.80;88.30;;;0.66;77.33;99481.03;5030293;28;20597;-71
2023/01/19 07:36:04;;;;;;;8.57;6.70;;;1.80;88.60;;;0.64;76.62;99482.97;5029624;28;20226;-70
2023/01/19 07:38:33;;;;;;;8.83;6.80;;;1.80;88.90;;;0.66;77.21;99488.94;5030299;28;20231;-69
2023/01/19 07:41:02;;;;;;;8.67;6.53;;;1.80;88.60;;;0.63;76.55;99486.56;5029483;28;20211;-71
2023/01/19 07:43:31;;;;;;;9.73;7.00;;;1.70;88.10;;;0.63;76.76;99492.69;5029803;28;20219;-69
2023/01/19 07:46:02;;;;;;;9.93;7.67;;;1.80;88.60;;;0.63;76.79;99490.03;5029551;28;20274;-65
2023/01/19 07:48:30;;;;;;;10.20;7.17;;;1.80;88.80;;;0.61;76.46;99485.88;5029154;28;20254;-65
2023/01/19 07:51:00;;;;;;;9.00;6.80;;;1.70;88.80;;;0.63;77.31;99483.94;5029618;28;20298;-57
2023/01/19 07:53:28;;;;;;;10.80;7.13;;;1.70;88.90;;;0.60;76.57;99492.94;5029565;28;20210;-74
2023/01/19 07:55:59;;;;;;;8.17;6.87;;;1.70;88.60;;;0.61;77.37;99493.78;5029012;28;20622;-73
2023/01/19 07:58:29;;;;;;;12.30;7.57;;;1.80;88.60;;;0.63;76.80;99486.56;5029605;28;20227;-73
2023/01/19 08:00:57;;;;;;;11.00;7.07;;;1.70;88.90;;;0.64;77.60;99494.34;5029654;28;20211;-74
2023/01/19 08:03:25;;;;;;;9.53;7.13;;;1.80;88.90;;;0.66;77.42;99491.56;5029778;28;20245;-75
2023/01/19 08:05:55;;;;;;;9.40;7.07;;;1.80;89.90;;;0.65;77.22;99495.19;5029372;28;20230;-75
2023/01/19 08:08:24;;;;;;;8.70;6.90;;;1.80;88.60;;;0.68;77.37;99508.09;5029875;28;20223;-75
2023/01/19 08:10:53;;;;;;;11.80;8.00;;;1.80;88.70;;;0.69;76.91;99512.38;5029630;28;20217;-75
2023/01/19 08:13:22;;;;;;;9.30;7.00;;;1.80;88.90;;;0.71;77.12;99502.56;5029754;28;20207;-75
2023/01/19 08:15:51;;;;;;;12.87;7.80;;;1.90;89.00;;;0.70;77.58;99504.38;5029403;28;20620;-75
2023/01/19 08:18:20;;;;;;;9.83;7.33;;;1.80;89.20;;;0.70;77.41;99501.75;5029372;28;20583;-75
2023/01/19 08:20:49;;;;;;;10.90;7.83;;;1.80;89.20;;;0.68;76.79;99494.94;5029574;28;20455;-75
2023/01/19 08:23:18;;;;;;;9.70;8.23;;;1.80;89.10;;;0.69;77.20;99501.84;5029411;28;20273;-75
2023/01/19 08:25:46;;;;;;;13.20;8.63;;;1.80;89.30;;;0.70;77.28;99498.25;5029191;28;20268;-75
2023/01/19 08:28:16;;;;;;;12.17;9.10;;;1.80;89.40;;;0.70;77.86;99503.53;5029396;28;20219;-75
2023/01/19 08:30:52;;;;;;;9.40;7.53;;;1.80;89.30;;;0.71;77.76;99499.94;5029353;28;20230;-75
2023/01/19 08:33:22;;;;;;;11.80;8.53;;;1.80;89.20;;;0.68;77.40;99501.03;5029380;28;20237;-75
2023/01/19 08:35:53;;;;;;;11.17;8.63;;;1.80;89.20;;;0.69;77.71;99501.84;5029052;28;20222;-75
2023/01/19 08:38:21;;;;;;;12.40;7.93;;;1.80;89.20;;;0.67;77.52;99507.25;5029164;28;20241;-74
2023/01/19 08:40:49;;;;;;;9.00;7.33;;;1.80;89.50;;;0.65;77.88;99511.00;5028845;28;20230;-76
2023/01/19 08:43:18;;;;;;;11.80;8.27;;;1.70;89.40;;;0.65;77.04;99511.00;5028962;28;20214;-75
2023/01/19 08:45:52;;;;;;;10.40;8.17;;;1.80;89.40;;;0.67;76.99;99519.59;5029131;28;20213;-75
2023/01/19 08:48:22;;;;;;;9.77;7.63;;;1.80;89.60;;;0.68;78.00;99518.63;5029472;28;20226;-75
2023/01/19 08:50:52;;;;;;;10.13;8.00;;;1.80;89.50;;;0.67;76.76;99511.69;5029298;28;20257;-75
2023/01/19 08:53:23;;;;;;;10.40;7.90;;;1.80;89.30;;;0.73;77.09;99513.81;5029058;28;20301;-75
2023/01/19 08:55:56;;;;;;;9.30;7.50;;;1.90;89.30;;;0.74;76.81;99518.13;5028890;28;20604;-75
2023/01/19 08:58:24;;;;;;;10.17;8.20;;;1.90;89.30;;;0.71;77.45;99515.75;5029022;28;20277;-75
2023/01/19 09:00:53;;;;;;;9.70;7.87;;;1.80;89.00;;;0.73;77.47;99512.00;5029259;28;20767;-75
2023/01/19 09:03:22;;;;;;;9.93;7.57;;;1.90;89.50;;;0.75;77.02;99527.72;5029013;28;20256;-75
2023/01/19 09:05:51;;;;;;;9.73;7.80;;;1.90;89.10;;;0.77;76.63;99516.06;5028277;28;20232;-75
2023/01/19 09:08:19;;;;;;;8.73;7.00;;;1.90;88.60;;;0.83;76.52;99525.25;5029231;28;20295;-75
2023/01/19 09:10:50;;;;;;;15.53;7.13;;;2.00;88.20;;;0.91;75.18;99525.44;5029335;28;20207;-75
2023/01/19 09:13:21;;;;;;;11.63;7.43;;;2.00;87.40;;;0.95;76.04;99530.34;5033110;28;20202;-75
2023/01/19 09:15:49;;;;;;;12.10;7.07;;;2.10;87.10;;;0.98;75.50;99529.25;5032355;28;20210;-76
2023/01/19 09:18:21;;;;;;;11.13;6.73;;;2.10;86.80;;;1.02;74.75;99535.94;5028649;28;20231;-74
2023/01/19 09:20:50;;;;;;;10.00;6.67;;;2.10;86.60;;;1.02;75.03;99541.19;5032898;28;20188;-75
2023/01/19 09:23:21;;;;;;;9.70;6.70;;;2.10;86.70;;;1.04;74.54;99544.53;5032915;28;20203;-75
2023/01/19 09:25:56;;;;;;;9.70;7.10;;;2.10;87.20;;;1.05;74.81;99540.94;5031842;28;20237;-76
2023/01/19 09:28:24;;;;;;;8.83;6.77;;;2.20;86.10;;;1.03;75.22;99548.97;5022601;28;20256;-75
2023/01/19 09:30:53;;;;;;;12.10;7.50;;;2.10;86.40;;;1.03;75.44;99548.97;5031462;28;20373;-76
2023/01/19 09:33:24;;;;;;;11.33;6.77;;;2.20;86.80;;;1.06;75.20;99550.53;5031842;28;20218;-75
2023/01/19 09:35:52;;;;;;;11.37;7.13;;;2.10;86.50;;;1.05;75.78;99554.13;5032480;28;20330;-76
2023/01/19 09:38:21;;;;;;;13.47;8.23;;;2.20;87.00;;;1.03;75.74;99559.50;5031140;28;20243;-76
2023/01/19 09:40:53;;;;;;;9.57;7.30;;;2.10;87.00;;;1.07;75.04;99560.09;5031308;28;20210;-76
2023/01/19 09:43:39;;;;;;;11.63;7.40;;;2.20;86.90;;;1.05;75.22;99562.03;5031983;28;20221;-76
2023/01/19 09:46:15;;;;;;;10.23;7.40;;;2.20;87.30;;;1.07;75.65;99567.16;5031869;28;20297;-76
2023/01/19 09:48:49;;;;;;;8.97;6.27;;;2.20;87.40;;;1.07;76.13;99565.34;5032210;28;20229;-75
2023/01/19 09:51:22;;;;;;;8.00;6.93;;;2.20;87.90;;;1.08;76.61;99564.41;5031596;28;20211;-75
2023/01/19 09:54:07;;;;;;;10.33;6.60;;;2.20;88.40;;;1.07;77.55;99565.34;5031475;28;20207;-76
2023/01/19 09:56:36;;;;;;;7.57;6.47;;;2.20;88.80;;;1.07;76.99;99564.50;5031445;28;20205;-76
2023/01/19 09:59:21;;;;;;;9.93;7.23;;;2.20;89.10;;;1.09;77.38;99579.25;5031664;28;20234;-76
2023/01/19 10:02:18;;;;;;;7.30;6.07;;;2.20;89.50;;;1.11;77.47;99577.31;5031793;28;20207;-76
2023/01/19 10:04:59;;;;;;;10.80;7.20;;;2.20;89.50;;;1.13;77.49;99577.22;5032048;28;20207;-76
2023/01/19 10:07:56;;;;;;;7.37;6.40;;;2.20;89.60;;;1.13;77.56;99578.00;5031695;28;20213;-76
2023/01/19 10:10:27;;;;;;;9.63;6.60;;;2.20;89.40;;;1.13;77.51;99575.38;5032064;28;20206;-76
2023/01/19 10:13:11;;;;;;;8.13;6.53;;;2.20;89.60;;;1.14;78.35;99582.31;5031782;28;20207;-76
2023/01/19 10:15:55;;;;;;;7.07;6.23;;;2.20;89.90;;;1.13;78.21;99583.28;5031452;28;20562;-76
2023/01/19 10:18:31;;;;;;;8.13;6.20;;;2.20;90.60;;;1.13;79.24;99579.84;5031300;28;20663;-77
2023/01/19 10:21:10;;;;;;;9.77;6.87;;;2.30;90.40;;;1.14;79.72;99587.59;5031771;28;20214;-76
2023/01/19 10:23:46;;;;;;;6.50;5.90;;;2.20;90.60;;;1.12;80.10;99586.91;5031343;28;20622;-76
2023/01/19 10:26:18;;;;;;;8.67;6.70;;;2.20;90.80;;;1.06;80.42;99578.69;5030817;28;20214;-76
2023/01/19 10:28:51;;;;;;;9.60;7.00;;;2.20;91.10;;;1.05;81.32;99588.38;5019647;28;20309;-76
2023/01/19 10:31:23;;;;;;;8.83;7.30;;;2.20;91.50;;;1.01;81.76;99592.22;5027010;28;20211;-76
2023/01/19 10:33:53;;;;;;;10.27;7.33;;;2.10;91.80;;;0.97;82.45;99585.53;5030992;28;20206;-76
2023/01/19 10:36:33;;;;;;;8.80;7.87;;;2.10;92.20;;;0.95;83.04;99590.13;5031084;28;20195;-76
2023/01/19 10:39:07;;;;;;;9.70;8.00;;;2.10;92.40;;;0.96;83.12;99591.75;5029774;28;20231;-76
2023/01/19 10:41:43;;;;;;;9.97;8.13;;;2.10;92.70;;;0.91;83.53;99586.91;5030139;28;20253;-75
2023/01/19 10:44:11;;;;;;;12.07;8.13;;;2.00;93.10;;;0.92;84.65;99587.72;5030379;28;20268;-76
2023/01/19 10:46:46;;;;;;;11.23;8.87;;;2.00;93.40;;;0.87;85.18;99592.53;5031089;28;20210;-76
2023/01/19 10:49:27;;;;;;;10.93;8.57;;;2.00;93.70;;;0.85;85.26;99586.56;5030861;28;20732;-76